sensor_id;sensor_type;location;lat;lon;timestamp;temperature;humidity
77467;DHT22;66564;42.482;25.548;2023-06-14T00:01:17;20.34;68.70
77467;DHT22;66564;42.482;25.548;2023-06-14T00:03:45;20.30;68.03
77467;DHT22;66564;42.482;25.548;2023-06-14T00:06:12;20.31;67.57
77467;DHT22;66564;42.482;25.548;2023-06-14T00:08:38;20.34;66.80
77467;DHT22;66564;42.482;25.548;2023-06-14T00:11:05;20.34;67.32
77467;DHT22;66564;42.482;25.548;2023-06-14T00:13:31;20.30;67.61
77467;DHT22;66564;42.482;25.548;2023-06-14T00:15:56;20.30;67.98
77467;DHT22;66564;42.482;25.548;2023-06-14T00:18:22;20.30;67.57
77467;DHT22;66564;42.482;25.548;2023-06-14T00:20:49;20.28;66.46
77467;DHT22;66564;42.482;25.548;2023-06-14T00:23:15;20.30;67.51
77467;DHT22;66564;42.482;25.548;2023-06-14T00:25:40;20.30;67.17
77467;DHT22;66564;42.482;25.548;2023-06-14T00:28:06;20.31;68.28
77467;DHT22;66564;42.482;25.548;2023-06-14T00:30:31;20.31;67.42
77467;DHT22;66564;42.482;25.548;2023-06-14T00:32:57;20.33;67.74
77467;DHT22;66564;42.482;25.548;2023-06-14T00:35:23;20.28;67.76
77467;DHT22;66564;42.482;25.548;2023-06-14T00:37:49;20.31;68.15
77467;DHT22;66564;42.482;25.548;2023-06-14T00:40:14;20.27;67.94
77467;DHT22;66564;42.482;25.548;2023-06-14T00:42:40;20.31;68.38
77467;DHT22;66564;42.482;25.548;2023-06-14T00:45:05;20.27;68.41
77467;DHT22;66564;42.482;25.548;2023-06-14T00:47:31;20.23;68.44
77467;DHT22;66564;42.482;25.548;2023-06-14T00:49:57;20.23;68.13
77467;DHT22;66564;42.482;25.548;2023-06-14T00:52:23;20.17;68.28
77467;DHT22;66564;42.482;25.548;2023-06-14T00:54:51;20.18;68.66
77467;DHT22;66564;42.482;25.548;2023-06-14T00:57:17;20.17;68.64
77467;DHT22;66564;42.482;25.548;2023-06-14T00:59:46;20.20;68.33
77467;DHT22;66564;42.482;25.548;2023-06-14T01:02:13;20.20;68.24
77467;DHT22;66564;42.482;25.548;2023-06-14T01:04:40;20.18;68.03
77467;DHT22;66564;42.482;25.548;2023-06-14T01:10:53;20.16;67.16
77467;DHT22;66564;42.482;25.548;2023-06-14T01:15:57;20.20;68.18
77467;DHT22;66564;42.482;25.548;2023-06-14T01:18:24;20.23;68.04
77467;DHT22;66564;42.482;25.548;2023-06-14T01:20:51;20.21;67.59
77467;DHT22;66564;42.482;25.548;2023-06-14T01:23:19;20.16;67.08
77467;DHT22;66564;42.482;25.548;2023-06-14T01:25:45;20.13;66.60
77467;DHT22;66564;42.482;25.548;2023-06-14T01:28:12;20.14;66.97
77467;DHT22;66564;42.482;25.548;2023-06-14T01:30:41;20.17;66.86
77467;DHT22;66564;42.482;25.548;2023-06-14T01:33:20;20.20;67.55
77467;DHT22;66564;42.482;25.548;2023-06-14T01:35:50;20.20;67.66
77467;DHT22;66564;42.482;25.548;2023-06-14T01:38:21;20.20;67.05
77467;DHT22;66564;42.482;25.548;2023-06-14T01:40:48;20.21;67.19
77467;DHT22;66564;42.482;25.548;2023-06-14T01:43:14;20.16;67.27
77467;DHT22;66564;42.482;25.548;2023-06-14T01:45:41;20.12;67.21
77467;DHT22;66564;42.482;25.548;2023-06-14T01:48:08;20.12;66.91
77467;DHT22;66564;42.482;25.548;2023-06-14T01:50:34;20.14;66.89
77467;DHT22;66564;42.482;25.548;2023-06-14T01:53:00;20.14;67.64
77467;DHT22;66564;42.482;25.548;2023-06-14T01:55:26;20.16;67.29
77467;DHT22;66564;42.482;25.548;2023-06-14T01:57:52;20.17;67.35
77467;DHT22;66564;42.482;25.548;2023-06-14T02:00:18;20.10;66.88
77467;DHT22;66564;42.482;25.548;2023-06-14T02:02:44;20.10;66.90
77467;DHT22;66564;42.482;25.548;2023-06-14T02:05:11;20.10;66.98
77467;DHT22;66564;42.482;25.548;2023-06-14T02:07:36;20.09;66.47
77467;DHT22;66564;42.482;25.548;2023-06-14T02:10:04;20.10;67.44
77467;DHT22;66564;42.482;25.548;2023-06-14T02:12:30;20.09;67.22
77467;DHT22;66564;42.482;25.548;2023-06-14T02:14:56;20.09;66.26
77467;DHT22;66564;42.482;25.548;2023-06-14T02:17:22;20.06;65.91
77467;DHT22;66564;42.482;25.548;2023-06-14T02:19:47;20.12;66.13
77467;DHT22;66564;42.482;25.548;2023-06-14T02:22:14;20.09;66.04
77467;DHT22;66564;42.482;25.548;2023-06-14T02:24:41;20.09;65.61
77467;DHT22;66564;42.482;25.548;2023-06-14T02:27:06;20.10;66.33
77467;DHT22;66564;42.482;25.548;2023-06-14T02:29:32;20.13;66.39
77467;DHT22;66564;42.482;25.548;2023-06-14T02:31:57;20.13;66.02
77467;DHT22;66564;42.482;25.548;2023-06-14T02:34:23;20.09;66.56
77467;DHT22;66564;42.482;25.548;2023-06-14T02:36:48;20.04;65.88
77467;DHT22;66564;42.482;25.548;2023-06-14T02:39:15;20.04;67.05
77467;DHT22;66564;42.482;25.548;2023-06-14T02:41:40;20.04;67.14
77467;DHT22;66564;42.482;25.548;2023-06-14T02:44:06;20.01;66.67
77467;DHT22;66564;42.482;25.548;2023-06-14T02:46:32;19.97;66.94
77467;DHT22;66564;42.482;25.548;2023-06-14T02:48:57;19.92;66.55
77467;DHT22;66564;42.482;25.548;2023-06-14T02:51:23;19.90;67.56
77467;DHT22;66564;42.482;25.548;2023-06-14T02:53:48;19.92;67.82
77467;DHT22;66564;42.482;25.548;2023-06-14T02:56:14;19.86;67.52
77467;DHT22;66564;42.482;25.548;2023-06-14T02:58:42;19.82;67.90
77467;DHT22;66564;42.482;25.548;2023-06-14T03:01:08;19.77;68.35
77467;DHT22;66564;42.482;25.548;2023-06-14T03:03:38;19.73;67.28
77467;DHT22;66564;42.482;25.548;2023-06-14T03:06:03;19.77;68.79
77467;DHT22;66564;42.482;25.548;2023-06-14T03:08:32;19.76;68.67
77467;DHT22;66564;42.482;25.548;2023-06-14T03:11:03;19.72;68.37
77467;DHT22;66564;42.482;25.548;2023-06-14T03:13:30;19.62;68.36
77467;DHT22;66564;42.482;25.548;2023-06-14T03:15:57;19.55;68.21
77467;DHT22;66564;42.482;25.548;2023-06-14T03:18:23;19.58;69.15
77467;DHT22;66564;42.482;25.548;2023-06-14T03:20:49;19.62;68.94
77467;DHT22;66564;42.482;25.548;2023-06-14T03:23:16;19.60;68.98
77467;DHT22;66564;42.482;25.548;2023-06-14T03:25:42;19.60;68.70
77467;DHT22;66564;42.482;25.548;2023-06-14T03:28:08;19.60;68.20
77467;DHT22;66564;42.482;25.548;2023-06-14T03:30:35;19.60;68.94
77467;DHT22;66564;42.482;25.548;2023-06-14T03:33:01;19.62;69.17
77467;DHT22;66564;42.482;25.548;2023-06-14T03:35:27;19.67;69.43
77467;DHT22;66564;42.482;25.548;2023-06-14T03:37:53;19.67;69.05
77467;DHT22;66564;42.482;25.548;2023-06-14T03:40:21;19.70;69.68
77467;DHT22;66564;42.482;25.548;2023-06-14T03:42:46;19.73;69.86
77467;DHT22;66564;42.482;25.548;2023-06-14T03:45:12;19.77;70.02
77467;DHT22;66564;42.482;25.548;2023-06-14T03:47:38;19.79;69.54
77467;DHT22;66564;42.482;25.548;2023-06-14T03:50:04;19.79;69.50
77467;DHT22;66564;42.482;25.548;2023-06-14T03:52:30;19.77;69.75
77467;DHT22;66564;42.482;25.548;2023-06-14T03:54:56;19.80;69.61
77467;DHT22;66564;42.482;25.548;2023-06-14T03:57:23;19.82;70.01
77467;DHT22;66564;42.482;25.548;2023-06-14T03:59:49;19.80;70.22
77467;DHT22;66564;42.482;25.548;2023-06-14T04:02:15;19.86;70.11
77467;DHT22;66564;42.482;25.548;2023-06-14T04:04:44;19.87;69.87
77467;DHT22;66564;42.482;25.548;2023-06-14T04:07:13;19.90;70.31
77467;DHT22;66564;42.482;25.548;2023-06-14T04:09:40;19.92;70.26
77467;DHT22;66564;42.482;25.548;2023-06-14T04:12:06;19.97;70.79
77467;DHT22;66564;42.482;25.548;2023-06-14T04:14:32;20.03;69.77
77467;DHT22;66564;42.482;25.548;2023-06-14T04:16:58;20.06;69.38
77467;DHT22;66564;42.482;25.548;2023-06-14T04:19:24;20.09;69.55
77467;DHT22;66564;42.482;25.548;2023-06-14T04:21:50;20.14;69.28
77467;DHT22;66564;42.482;25.548;2023-06-14T04:24:16;20.18;69.21
77467;DHT22;66564;42.482;25.548;2023-06-14T04:26:42;20.24;69.19
77467;DHT22;66564;42.482;25.548;2023-06-14T04:29:10;20.34;68.42
77467;DHT22;66564;42.482;25.548;2023-06-14T04:31:42;20.30;67.91
77467;DHT22;66564;42.482;25.548;2023-06-14T04:34:09;20.34;65.98
77467;DHT22;66564;42.482;25.548;2023-06-14T04:36:42;20.40;63.93
77467;DHT22;66564;42.482;25.548;2023-06-14T04:39:17;20.40;62.16
77467;DHT22;66564;42.482;25.548;2023-06-14T04:41:43;20.38;63.26
77467;DHT22;66564;42.482;25.548;2023-06-14T04:44:09;20.45;63.34
77467;DHT22;66564;42.482;25.548;2023-06-14T04:46:35;20.40;67.31
77467;DHT22;66564;42.482;25.548;2023-06-14T04:49:09;20.41;67.34
77467;DHT22;66564;42.482;25.548;2023-06-14T04:51:35;20.49;66.69
77467;DHT22;66564;42.482;25.548;2023-06-14T04:54:02;20.54;67.08
77467;DHT22;66564;42.482;25.548;2023-06-14T04:56:28;20.55;66.74
77467;DHT22;66564;42.482;25.548;2023-06-14T04:58:54;20.58;66.10
77467;DHT22;66564;42.482;25.548;2023-06-14T05:01:22;20.59;65.18
77467;DHT22;66564;42.482;25.548;2023-06-14T05:03:49;20.68;65.67
77467;DHT22;66564;42.482;25.548;2023-06-14T05:06:15;20.71;64.62
77467;DHT22;66564;42.482;25.548;2023-06-14T05:08:41;20.75;63.65
77467;DHT22;66564;42.482;25.548;2023-06-14T05:11:07;20.79;64.16
77467;DHT22;66564;42.482;25.548;2023-06-14T05:13:32;20.82;64.75
77467;DHT22;66564;42.482;25.548;2023-06-14T05:15:58;20.85;64.78
77467;DHT22;66564;42.482;25.548;2023-06-14T05:18:24;20.95;64.27
77467;DHT22;66564;42.482;25.548;2023-06-14T05:20:50;20.98;63.56
77467;DHT22;66564;42.482;25.548;2023-06-14T05:23:16;20.99;63.54
77467;DHT22;66564;42.482;25.548;2023-06-14T05:25:45;21.03;63.23
77467;DHT22;66564;42.482;25.548;2023-06-14T05:28:11;21.11;62.60
77467;DHT22;66564;42.482;25.548;2023-06-14T05:30:40;21.12;62.42
77467;DHT22;66564;42.482;25.548;2023-06-14T05:33:05;21.16;62.67
77467;DHT22;66564;42.482;25.548;2023-06-14T05:35:31;21.16;62.21
77467;DHT22;66564;42.482;25.548;2023-06-14T05:37:59;21.26;62.57
77467;DHT22;66564;42.482;25.548;2023-06-14T05:40:26;21.31;62.88
77467;DHT22;66564;42.482;25.548;2023-06-14T05:42:52;21.33;61.54
77467;DHT22;66564;42.482;25.548;2023-06-14T05:45:17;21.36;62.09
77467;DHT22;66564;42.482;25.548;2023-06-14T05:47:43;21.46;61.28
77467;DHT22;66564;42.482;25.548;2023-06-14T05:50:09;21.54;61.27
77467;DHT22;66564;42.482;25.548;2023-06-14T05:52:35;21.59;61.77
77467;DHT22;66564;42.482;25.548;2023-06-14T05:55:04;21.63;60.80
77467;DHT22;66564;42.482;25.548;2023-06-14T05:57:31;21.69;59.90
77467;DHT22;66564;42.482;25.548;2023-06-14T05:59:57;21.72;59.98
77467;DHT22;66564;42.482;25.548;2023-06-14T06:02:22;21.76;61.11
77467;DHT22;66564;42.482;25.548;2023-06-14T06:04:48;21.83;60.05
77467;DHT22;66564;42.482;25.548;2023-06-14T06:07:13;21.82;60.27
77467;DHT22;66564;42.482;25.548;2023-06-14T06:09:39;21.86;60.03
77467;DHT22;66564;42.482;25.548;2023-06-14T06:12:06;21.90;59.39
77467;DHT22;66564;42.482;25.548;2023-06-14T06:14:32;21.96;59.75
77467;DHT22;66564;42.482;25.548;2023-06-14T06:16:57;21.96;58.91
77467;DHT22;66564;42.482;25.548;2023-06-14T06:19:23;21.97;58.91
77467;DHT22;66564;42.482;25.548;2023-06-14T06:21:49;22.03;59.05
77467;DHT22;66564;42.482;25.548;2023-06-14T06:24:15;22.04;58.74
77467;DHT22;66564;42.482;25.548;2023-06-14T06:26:40;22.08;59.01
77467;DHT22;66564;42.482;25.548;2023-06-14T06:33:30;22.22;58.37
77467;DHT22;66564;42.482;25.548;2023-06-14T06:35:56;22.24;58.64
77467;DHT22;66564;42.482;25.548;2023-06-14T06:38:21;22.36;58.69
77467;DHT22;66564;42.482;25.548;2023-06-14T06:40:47;22.47;58.59
77467;DHT22;66564;42.482;25.548;2023-06-14T06:43:12;22.54;58.52
77467;DHT22;66564;42.482;25.548;2023-06-14T06:45:42;22.67;58.70
77467;DHT22;66564;42.482;25.548;2023-06-14T06:48:08;22.76;58.64
77467;DHT22;66564;42.482;25.548;2023-06-14T06:50:35;22.85;57.86
77467;DHT22;66564;42.482;25.548;2023-06-14T06:53:01;22.95;57.82
77467;DHT22;66564;42.482;25.548;2023-06-14T06:55:27;23.02;58.12
77467;DHT22;66564;42.482;25.548;2023-06-14T06:57:52;23.15;57.02
77467;DHT22;66564;42.482;25.548;2023-06-14T07:00:19;23.23;57.81
77467;DHT22;66564;42.482;25.548;2023-06-14T07:02:45;23.27;57.88
77467;DHT22;66564;42.482;25.548;2023-06-14T07:05:11;23.38;57.30
77467;DHT22;66564;42.482;25.548;2023-06-14T07:07:36;23.47;57.55
77467;DHT22;66564;42.482;25.548;2023-06-14T07:10:02;23.57;58.23
77467;DHT22;66564;42.482;25.548;2023-06-14T07:12:33;23.65;56.89
77467;DHT22;66564;42.482;25.548;2023-06-14T07:15:01;23.78;56.77
77467;DHT22;66564;42.482;25.548;2023-06-14T07:17:27;23.87;55.62
77467;DHT22;66564;42.482;25.548;2023-06-14T07:19:53;23.98;55.35
77467;DHT22;66564;42.482;25.548;2023-06-14T07:22:19;24.04;55.01
77467;DHT22;66564;42.482;25.548;2023-06-14T07:24:45;24.16;55.67
77467;DHT22;66564;42.482;25.548;2023-06-14T07:27:11;24.24;55.99
77467;DHT22;66564;42.482;25.548;2023-06-14T07:29:38;24.35;54.45
77467;DHT22;66564;42.482;25.548;2023-06-14T07:32:04;24.37;54.31
77467;DHT22;66564;42.482;25.548;2023-06-14T07:34:31;24.37;53.90
77467;DHT22;66564;42.482;25.548;2023-06-14T07:36:56;24.34;54.03
77467;DHT22;66564;42.482;25.548;2023-06-14T07:39:22;24.34;54.23
77467;DHT22;66564;42.482;25.548;2023-06-14T07:41:48;24.34;53.88
77467;DHT22;66564;42.482;25.548;2023-06-14T07:44:14;24.32;53.78
77467;DHT22;66564;42.482;25.548;2023-06-14T07:46:39;24.32;54.08
77467;DHT22;66564;42.482;25.548;2023-06-14T07:49:05;24.30;53.73
77467;DHT22;66564;42.482;25.548;2023-06-14T07:51:31;24.24;53.63
77467;DHT22;66564;42.482;25.548;2023-06-14T07:53:59;24.22;54.01
77467;DHT22;66564;42.482;25.548;2023-06-14T07:56:28;24.20;55.82
77467;DHT22;66564;42.482;25.548;2023-06-14T07:58:53;24.20;55.63
77467;DHT22;66564;42.482;25.548;2023-06-14T08:01:19;24.20;55.81
77467;DHT22;66564;42.482;25.548;2023-06-14T08:03:45;24.16;54.50
77467;DHT22;66564;42.482;25.548;2023-06-14T08:06:10;24.14;54.68
77467;DHT22;66564;42.482;25.548;2023-06-14T08:08:36;24.13;55.22
77467;DHT22;66564;42.482;25.548;2023-06-14T08:11:02;24.06;55.09
77467;DHT22;66564;42.482;25.548;2023-06-14T08:13:27;24.06;54.61
77467;DHT22;66564;42.482;25.548;2023-06-14T08:15:53;24.06;55.04
77467;DHT22;66564;42.482;25.548;2023-06-14T08:18:19;24.07;54.91
77467;DHT22;66564;42.482;25.548;2023-06-14T08:20:44;24.10;54.51
77467;DHT22;66564;42.482;25.548;2023-06-14T08:23:10;24.08;54.43
77467;DHT22;66564;42.482;25.548;2023-06-14T08:25:36;24.10;55.03
77467;DHT22;66564;42.482;25.548;2023-06-14T08:28:02;24.17;55.25
77467;DHT22;66564;42.482;25.548;2023-06-14T08:30:27;24.24;54.66
77467;DHT22;66564;42.482;25.548;2023-06-14T08:32:53;24.28;55.00
77467;DHT22;66564;42.482;25.548;2023-06-14T08:35:21;24.38;54.23
77467;DHT22;66564;42.482;25.548;2023-06-14T08:37:46;24.08;55.12
77467;DHT22;66564;42.482;25.548;2023-06-14T08:40:23;24.28;54.15
77467;DHT22;66564;42.482;25.548;2023-06-14T08:42:54;24.42;54.13
77467;DHT22;66564;42.482;25.548;2023-06-14T08:45:24;24.51;54.74
77467;DHT22;66564;42.482;25.548;2023-06-14T08:47:50;24.58;54.68
77467;DHT22;66564;42.482;25.548;2023-06-14T08:50:21;24.68;54.39
77467;DHT22;66564;42.482;25.548;2023-06-14T08:52:51;24.78;54.09
77467;DHT22;66564;42.482;25.548;2023-06-14T08:55:18;24.85;53.36
77467;DHT22;66564;42.482;25.548;2023-06-14T08:57:46;24.91;52.61
77467;DHT22;66564;42.482;25.548;2023-06-14T09:00:14;25.01;52.25
77467;DHT22;66564;42.482;25.548;2023-06-14T09:02:40;25.06;52.63
77467;DHT22;66564;42.482;25.548;2023-06-14T09:05:09;25.15;52.59
77467;DHT22;66564;42.482;25.548;2023-06-14T09:07:37;25.22;51.82
77467;DHT22;66564;42.482;25.548;2023-06-14T09:10:14;25.29;51.82
77467;DHT22;66564;42.482;25.548;2023-06-14T09:12:40;25.35;52.05
77467;DHT22;66564;42.482;25.548;2023-06-14T09:15:07;25.40;50.98
77467;DHT22;66564;42.482;25.548;2023-06-14T09:17:37;25.47;50.80
77467;DHT22;66564;42.482;25.548;2023-06-14T09:20:07;25.49;51.89
77467;DHT22;66564;42.482;25.548;2023-06-14T09:22:37;25.50;52.80
77467;DHT22;66564;42.482;25.548;2023-06-14T09:25:04;25.50;51.95
77467;DHT22;66564;42.482;25.548;2023-06-14T09:27:32;25.51;51.67
77467;DHT22;66564;42.482;25.548;2023-06-14T09:29:57;25.51;51.93
77467;DHT22;66564;42.482;25.548;2023-06-14T09:32:24;25.50;51.43
77467;DHT22;66564;42.482;25.548;2023-06-14T09:34:50;25.51;52.28
77467;DHT22;66564;42.482;25.548;2023-06-14T09:37:32;25.50;50.63
77467;DHT22;66564;42.482;25.548;2023-06-14T09:39:58;25.49;51.09
77467;DHT22;66564;42.482;25.548;2023-06-14T09:42:24;25.50;52.63
77467;DHT22;66564;42.482;25.548;2023-06-14T09:44:54;25.50;52.87
77467;DHT22;66564;42.482;25.548;2023-06-14T09:47:21;25.50;53.19
77467;DHT22;66564;42.482;25.548;2023-06-14T09:49:47;25.50;52.75
77467;DHT22;66564;42.482;25.548;2023-06-14T09:52:21;25.50;53.44
77467;DHT22;66564;42.482;25.548;2023-06-14T09:54:47;25.51;53.66
77467;DHT22;66564;42.482;25.548;2023-06-14T09:57:21;25.54;53.01
77467;DHT22;66564;42.482;25.548;2023-06-14T09:59:48;25.62;52.27
77467;DHT22;66564;42.482;25.548;2023-06-14T10:02:29;25.65;52.03
77467;DHT22;66564;42.482;25.548;2023-06-14T10:05:08;25.67;50.85
77467;DHT22;66564;42.482;25.548;2023-06-14T10:07:48;25.69;50.76
77467;DHT22;66564;42.482;25.548;2023-06-14T10:10:14;25.79;51.96
77467;DHT22;66564;42.482;25.548;2023-06-14T10:12:40;25.89;51.06
77467;DHT22;66564;42.482;25.548;2023-06-14T10:15:08;25.94;50.65
77467;DHT22;66564;42.482;25.548;2023-06-14T10:17:47;25.94;51.24
77467;DHT22;66564;42.482;25.548;2023-06-14T10:20:37;26.11;50.24
77467;DHT22;66564;42.482;25.548;2023-06-14T10:23:10;26.18;50.81
77467;DHT22;66564;42.482;25.548;2023-06-14T10:25:38;26.30;49.72
77467;DHT22;66564;42.482;25.548;2023-06-14T10:28:23;26.37;50.34
77467;DHT22;66564;42.482;25.548;2023-06-14T10:31:11;26.41;49.49
77467;DHT22;66564;42.482;25.548;2023-06-14T10:33:58;26.51;48.75
77467;DHT22;66564;42.482;25.548;2023-06-14T10:36:31;26.51;48.66
77467;DHT22;66564;42.482;25.548;2023-06-14T10:39:14;26.55;49.28
77467;DHT22;66564;42.482;25.548;2023-06-14T10:41:41;26.56;49.21
77467;DHT22;66564;42.482;25.548;2023-06-14T10:46:49;26.54;50.05
77467;DHT22;66564;42.482;25.548;2023-06-14T10:49:19;26.54;51.86
77467;DHT22;66564;42.482;25.548;2023-06-14T10:51:48;26.54;53.08
77467;DHT22;66564;42.482;25.548;2023-06-14T10:54:20;26.48;53.00
77467;DHT22;66564;42.482;25.548;2023-06-14T10:56:52;26.43;53.48
77467;DHT22;66564;42.482;25.548;2023-06-14T10:59:19;26.40;53.92
77467;DHT22;66564;42.482;25.548;2023-06-14T11:01:57;26.34;54.35
77467;DHT22;66564;42.482;25.548;2023-06-14T11:07:48;26.18;54.59
77467;DHT22;66564;42.482;25.548;2023-06-14T11:10:41;26.10;54.75
77467;DHT22;66564;42.482;25.548;2023-06-14T11:13:08;26.04;54.92
77467;DHT22;66564;42.482;25.548;2023-06-14T11:15:38;26.05;55.06
77467;DHT22;66564;42.482;25.548;2023-06-14T11:18:05;26.00;54.51
77467;DHT22;66564;42.482;25.548;2023-06-14T11:20:33;25.97;54.01
77467;DHT22;66564;42.482;25.548;2023-06-14T11:22:59;25.97;53.95
77467;DHT22;66564;42.482;25.548;2023-06-14T11:25:25;25.96;52.81
77467;DHT22;66564;42.482;25.548;2023-06-14T11:27:52;26.00;54.19
77467;DHT22;66564;42.482;25.548;2023-06-14T11:30:18;25.94;52.90
77467;DHT22;66564;42.482;25.548;2023-06-14T11:32:51;25.94;53.07
77467;DHT22;66564;42.482;25.548;2023-06-14T11:35:23;25.93;52.15
77467;DHT22;66564;42.482;25.548;2023-06-14T11:37:52;25.98;51.10
77467;DHT22;66564;42.482;25.548;2023-06-14T11:40:17;26.08;51.40
77467;DHT22;66564;42.482;25.548;2023-06-14T11:42:43;26.01;49.58
77467;DHT22;66564;42.482;25.548;2023-06-14T11:45:10;25.94;50.59
77467;DHT22;66564;42.482;25.548;2023-06-14T11:47:38;26.18;52.11
77467;DHT22;66564;42.482;25.548;2023-06-14T11:50:08;26.37;50.90
77467;DHT22;66564;42.482;25.548;2023-06-14T11:52:35;26.61;51.54
77467;DHT22;66564;42.482;25.548;2023-06-14T11:55:02;26.86;49.64
77467;DHT22;66564;42.482;25.548;2023-06-14T11:57:33;27.19;51.73
77467;DHT22;66564;42.482;25.548;2023-06-14T11:59:59;27.63;50.73
77467;DHT22;66564;42.482;25.548;2023-06-14T12:02:24;27.96;47.05
77467;DHT22;66564;42.482;25.548;2023-06-14T12:04:53;28.20;44.86
77467;DHT22;66564;42.482;25.548;2023-06-14T12:07:18;28.20;45.07
77467;DHT22;66564;42.482;25.548;2023-06-14T12:12:23;28.51;45.12
77467;DHT22;66564;42.482;25.548;2023-06-14T12:14:51;28.58;43.64
77467;DHT22;66564;42.482;25.548;2023-06-14T12:17:18;28.65;42.92
77467;DHT22;66564;42.482;25.548;2023-06-14T12:19:45;28.69;42.90
77467;DHT22;66564;42.482;25.548;2023-06-14T12:22:14;28.71;44.10
77467;DHT22;66564;42.482;25.548;2023-06-14T12:24:43;28.74;45.53
77467;DHT22;66564;42.482;25.548;2023-06-14T12:27:09;28.76;46.56
77467;DHT22;66564;42.482;25.548;2023-06-14T12:29:37;28.65;45.94
77467;DHT22;66564;42.482;25.548;2023-06-14T12:32:02;28.61;45.88
77467;DHT22;66564;42.482;25.548;2023-06-14T12:34:28;28.61;46.96
77467;DHT22;66564;42.482;25.548;2023-06-14T12:36:54;28.62;46.95
77467;DHT22;66564;42.482;25.548;2023-06-14T12:39:20;28.71;47.37
77467;DHT22;66564;42.482;25.548;2023-06-14T12:41:46;28.72;47.26
77467;DHT22;66564;42.482;25.548;2023-06-14T12:44:12;28.65;46.99
77467;DHT22;66564;42.482;25.548;2023-06-14T12:46:39;28.65;48.50
77467;DHT22;66564;42.482;25.548;2023-06-14T12:49:05;28.64;47.66
77467;DHT22;66564;42.482;25.548;2023-06-14T12:51:32;28.62;47.54
77467;DHT22;66564;42.482;25.548;2023-06-14T12:53:57;28.61;48.05
77467;DHT22;66564;42.482;25.548;2023-06-14T12:56:23;28.57;48.27
77467;DHT22;66564;42.482;25.548;2023-06-14T12:58:48;28.57;48.85
77467;DHT22;66564;42.482;25.548;2023-06-14T13:01:14;28.58;48.85
77467;DHT22;66564;42.482;25.548;2023-06-14T13:03:40;28.52;47.66
77467;DHT22;66564;42.482;25.548;2023-06-14T13:06:05;28.43;47.16
77467;DHT22;66564;42.482;25.548;2023-06-14T13:08:31;28.22;47.92
77467;DHT22;66564;42.482;25.548;2023-06-14T13:10:56;28.13;48.39
77467;DHT22;66564;42.482;25.548;2023-06-14T13:13:26;28.07;48.60
77467;DHT22;66564;42.482;25.548;2023-06-14T13:15:54;28.00;48.53
77467;DHT22;66564;42.482;25.548;2023-06-14T13:18:22;27.73;46.80
77467;DHT22;66564;42.482;25.548;2023-06-14T13:20:48;27.69;48.05
77467;DHT22;66564;42.482;25.548;2023-06-14T13:23:14;27.64;48.77
77467;DHT22;66564;42.482;25.548;2023-06-14T13:25:40;27.56;48.69
77467;DHT22;66564;42.482;25.548;2023-06-14T13:28:06;27.50;48.82
77467;DHT22;66564;42.482;25.548;2023-06-14T13:30:32;27.46;48.65
77467;DHT22;66564;42.482;25.548;2023-06-14T13:32:58;27.36;47.32
77467;DHT22;66564;42.482;25.548;2023-06-14T13:35:24;27.29;47.20
77467;DHT22;66564;42.482;25.548;2023-06-14T13:37:50;27.32;47.68
77467;DHT22;66564;42.482;25.548;2023-06-14T13:40:15;27.20;47.99
77467;DHT22;66564;42.482;25.548;2023-06-14T13:42:41;27.09;48.17
77467;DHT22;66564;42.482;25.548;2023-06-14T13:45:08;27.13;48.38
77467;DHT22;66564;42.482;25.548;2023-06-14T13:47:34;27.18;46.91
77467;DHT22;66564;42.482;25.548;2023-06-14T13:50:00;27.19;46.36
77467;DHT22;66564;42.482;25.548;2023-06-14T13:52:25;27.15;46.02
77467;DHT22;66564;42.482;25.548;2023-06-14T13:54:51;27.18;46.51
77467;DHT22;66564;42.482;25.548;2023-06-14T13:57:17;27.23;46.34
77467;DHT22;66564;42.482;25.548;2023-06-14T13:59:44;27.30;47.27
77467;DHT22;66564;42.482;25.548;2023-06-14T14:02:10;27.28;47.28
77467;DHT22;66564;42.482;25.548;2023-06-14T14:04:37;27.28;47.20
77467;DHT22;66564;42.482;25.548;2023-06-14T14:07:04;27.32;48.20
77467;DHT22;66564;42.482;25.548;2023-06-14T14:09:30;27.38;48.50
77467;DHT22;66564;42.482;25.548;2023-06-14T14:11:56;27.46;47.34
77467;DHT22;66564;42.482;25.548;2023-06-14T14:14:21;27.50;47.36
77467;DHT22;66564;42.482;25.548;2023-06-14T14:16:49;27.53;47.74
77467;DHT22;66564;42.482;25.548;2023-06-14T14:19:17;27.64;47.84
77467;DHT22;66564;42.482;25.548;2023-06-14T14:21:44;27.74;47.82
77467;DHT22;66564;42.482;25.548;2023-06-14T14:24:10;27.81;47.87
77467;DHT22;66564;42.482;25.548;2023-06-14T14:26:35;27.87;46.97
77467;DHT22;66564;42.482;25.548;2023-06-14T14:29:01;27.87;47.70
77467;DHT22;66564;42.482;25.548;2023-06-14T14:31:27;27.93;47.54
77467;DHT22;66564;42.482;25.548;2023-06-14T14:33:53;27.98;47.71
77467;DHT22;66564;42.482;25.548;2023-06-14T14:36:18;28.05;47.27
77467;DHT22;66564;42.482;25.548;2023-06-14T14:38:44;28.17;47.07
77467;DHT22;66564;42.482;25.548;2023-06-14T14:41:10;28.29;46.67
77467;DHT22;66564;42.482;25.548;2023-06-14T14:43:35;28.40;46.06
77467;DHT22;66564;42.482;25.548;2023-06-14T14:46:01;28.33;44.93
77467;DHT22;66564;42.482;25.548;2023-06-14T14:48:26;28.38;45.74
77467;DHT22;66564;42.482;25.548;2023-06-14T14:50:52;28.29;45.49
77467;DHT22;66564;42.482;25.548;2023-06-14T14:53:18;28.35;45.95
77467;DHT22;66564;42.482;25.548;2023-06-14T14:55:44;28.34;45.49
77467;DHT22;66564;42.482;25.548;2023-06-14T14:58:09;28.18;45.62
77467;DHT22;66564;42.482;25.548;2023-06-14T15:00:35;28.13;45.75
77467;DHT22;66564;42.482;25.548;2023-06-14T15:03:00;28.11;46.24
77467;DHT22;66564;42.482;25.548;2023-06-14T15:05:26;28.10;46.46
77467;DHT22;66564;42.482;25.548;2023-06-14T15:07:56;28.13;46.58
77467;DHT22;66564;42.482;25.548;2023-06-14T15:10:22;28.10;45.81
77467;DHT22;66564;42.482;25.548;2023-06-14T15:12:47;28.10;46.11
77467;DHT22;66564;42.482;25.548;2023-06-14T15:15:13;28.08;46.16
77467;DHT22;66564;42.482;25.548;2023-06-14T15:17:38;27.90;45.57
77467;DHT22;66564;42.482;25.548;2023-06-14T15:20:04;27.74;45.90
77467;DHT22;66564;42.482;25.548;2023-06-14T15:22:31;27.63;46.07
77467;DHT22;66564;42.482;25.548;2023-06-14T15:24:59;27.63;46.31
77467;DHT22;66564;42.482;25.548;2023-06-14T15:27:25;27.60;46.71
77467;DHT22;66564;42.482;25.548;2023-06-14T15:29:51;27.47;46.61
77467;DHT22;66564;42.482;25.548;2023-06-14T15:32:16;27.43;47.34
77467;DHT22;66564;42.482;25.548;2023-06-14T15:34:42;27.29;46.98